THY8KL EGLL-LTFM
Flight info
| Callsign | THY8KL |
|---|---|
| Flight time | 3h 24m |
| Altitude | 23000 |
| Route | DET L6 DVR L9 KONAN/N0471F390 UL607 KOK DCT LIRSU DCT LALMI DCT ABTAL DCT RIDAR DCT GOMIG DCT NEMAL DCT GOTAR DCT BABIT DCT ESIRI DCT ETIDA T390 RILEX |
| Aircraft | A332/H-SDE3GHIJ2J3J5M1RVWXY/LB2D1 |
Departure
| Time | 2026-05-04 16:04 |
|---|---|
| Airport | London Heathrow Airport (EGLL) |
Arrival
| Time | 2026-05-04 19:28 |
|---|---|
| Airport | İstanbul Airport (LTFM) |
| Time | Latitude | Longitude | Altitude | Speed | Heading |
|---|---|---|---|---|---|
| 2026-05-04 15:44 | 51.46939 | -0.44222 | 86 ft | 0 kts | 269° |
| 2026-05-04 15:51 | 51.46939 | -0.44216 | 89 ft | 2 kts | 269° |
| 2026-05-04 15:51 | 51.46939 | -0.44187 | 86 ft | 3 kts | 269° |
| 2026-05-04 15:51 | 51.46939 | -0.44154 | 86 ft | 3 kts | 269° |
| 2026-05-04 15:51 | 51.46939 | -0.44121 | 86 ft | 3 kts | 269° |
| 2026-05-04 15:52 | 51.46939 | -0.44094 | 86 ft | 2 kts | 269° |
| 2026-05-04 15:52 | 51.46941 | -0.44066 | 87 ft | 3 kts | 232° |
| 2026-05-04 15:52 | 51.46954 | -0.44053 | 90 ft | 3 kts | 178° |
| 2026-05-04 15:52 | 51.46974 | -0.44056 | 89 ft | 3 kts | 171° |
| 2026-05-04 15:53 | 51.46988 | -0.44059 | 88 ft | 1 kts | 179° |
| 2026-05-04 15:58 | 51.46980 | -0.44060 | 86 ft | 6 kts | 183° |
| 2026-05-04 15:58 | 51.46914 | -0.44065 | 89 ft | 10 kts | 186° |
| 2026-05-04 15:58 | 51.46852 | -0.44069 | 86 ft | 10 kts | 182° |
| 2026-05-04 15:59 | 51.46781 | -0.44033 | 90 ft | 5 kts | 124° |
| 2026-05-04 15:59 | 51.46772 | -0.43974 | 90 ft | 11 kts | 98° |
| 2026-05-04 15:59 | 51.46785 | -0.43823 | 90 ft | 14 kts | 53° |
| 2026-05-04 15:59 | 51.46869 | -0.43758 | 90 ft | 14 kts | 7° |
| 2026-05-04 16:00 | 51.46967 | -0.43756 | 89 ft | 15 kts | 360° |
| 2026-05-04 16:00 | 51.47075 | -0.43757 | 89 ft | 16 kts | 360° |
| 2026-05-04 16:00 | 51.47195 | -0.43757 | 89 ft | 18 kts | 1° |
| 2026-05-04 16:00 | 51.47322 | -0.43759 | 89 ft | 19 kts | 359° |
| 2026-05-04 16:01 | 51.47430 | -0.43749 | 89 ft | 8 kts | 26° |
| 2026-05-04 16:01 | 51.47450 | -0.43678 | 87 ft | 9 kts | 81° |
| 2026-05-04 16:01 | 51.47454 | -0.43513 | 86 ft | 16 kts | 88° |
| 2026-05-04 16:01 | 51.47466 | -0.43355 | 86 ft | 13 kts | 68° |
| 2026-05-04 16:02 | 51.47534 | -0.43265 | 90 ft | 12 kts | 15° |
| 2026-05-04 16:02 | 51.47623 | -0.43258 | 90 ft | 15 kts | 357° |
| 2026-05-04 16:02 | 51.47769 | -0.43507 | 91 ft | 16 kts | 273° |
| 2026-05-04 16:03 | 51.47769 | -0.43637 | 90 ft | 0 kts | 269° |
| 2026-05-04 16:03 | 51.47768 | -0.43842 | 89 ft | 50 kts | 270° |
| 2026-05-04 16:03 | 51.47766 | -0.44768 | 94 ft | 115 kts | 270° |
| 2026-05-04 16:04 | 51.47755 | -0.46368 | 111 ft | 168 kts | 271° |
| 2026-05-04 16:04 | 51.47760 | -0.50138 | 1707 ft | 177 kts | 273° |
| 2026-05-04 16:04 | 51.47777 | -0.52152 | 2446 ft | 191 kts | 271° |
| 2026-05-04 16:05 | 51.47349 | -0.54329 | 2855 ft | 221 kts | 243° |
| 2026-05-04 16:05 | 51.46146 | -0.56054 | 3208 ft | 245 kts | 208° |
| 2026-05-04 16:05 | 51.43322 | -0.55976 | 4230 ft | 258 kts | 156° |
| 2026-05-04 16:06 | 51.41901 | -0.54186 | 5001 ft | 264 kts | 138° |
| 2026-05-04 16:06 | 51.38058 | -0.47646 | 6001 ft | 271 kts | 138° |
| 2026-05-04 16:07 | 51.36742 | -0.45466 | 5997 ft | 272 kts | 138° |
| 2026-05-04 16:07 | 51.32900 | -0.38834 | 6208 ft | 274 kts | 129° |
| 2026-05-04 16:08 | 51.31930 | -0.36190 | 6829 ft | 279 kts | 108° |
| 2026-05-04 16:08 | 51.31783 | -0.26894 | 9808 ft | 284 kts | 91° |
| 2026-05-04 16:09 | 51.31730 | -0.20273 | 10827 ft | 318 kts | 91° |
| 2026-05-04 16:09 | 51.31632 | -0.12728 | 11579 ft | 358 kts | 92° |
| 2026-05-04 16:10 | 51.31518 | -0.04564 | 12993 ft | 373 kts | 92° |
| 2026-05-04 16:11 | 51.31324 | 0.08066 | 15286 ft | 387 kts | 92° |
| 2026-05-04 16:11 | 51.31255 | 0.12396 | 16019 ft | 391 kts | 92° |
| 2026-05-04 16:12 | 51.31031 | 0.25625 | 18084 ft | 403 kts | 93° |
| 2026-05-04 16:12 | 51.30784 | 0.39258 | 19782 ft | 415 kts | 94° |
| 2026-05-04 16:13 | 51.30609 | 0.48554 | 20857 ft | 423 kts | 94° |
| 2026-05-04 16:13 | 51.30360 | 0.58032 | 21981 ft | 428 kts | 98° |
| 2026-05-04 16:14 | 51.29135 | 0.67333 | 23019 ft | 433 kts | 108° |
| 2026-05-04 16:14 | 51.27407 | 0.76627 | 23942 ft | 439 kts | 109° |
| 2026-05-04 16:15 | 51.24694 | 0.90768 | 25277 ft | 448 kts | 109° |
| 2026-05-04 16:16 | 51.22900 | 1.00351 | 26263 ft | 450 kts | 109° |
| 2026-05-04 16:16 | 51.20214 | 1.14769 | 27527 ft | 458 kts | 109° |
| 2026-05-04 16:17 | 51.18377 | 1.24567 | 28350 ft | 464 kts | 109° |
| 2026-05-04 16:18 | 51.16119 | 1.39739 | 29532 ft | 476 kts | 99° |
| 2026-05-04 16:18 | 51.15777 | 1.44999 | 29883 ft | 479 kts | 98° |
| 2026-05-04 16:19 | 51.14996 | 1.60996 | 31029 ft | 483 kts | 97° |
| 2026-05-04 16:19 | 51.14500 | 1.71643 | 31944 ft | 481 kts | 97° |
| 2026-05-04 16:20 | 51.13706 | 1.87538 | 33242 ft | 479 kts | 98° |
| 2026-05-04 16:20 | 51.13156 | 1.98118 | 33982 ft | 480 kts | 98° |
| 2026-05-04 16:21 | 51.12316 | 2.13927 | 34989 ft | 479 kts | 98° |
| 2026-05-04 16:22 | 51.11745 | 2.24489 | 35628 ft | 478 kts | 98° |
| 2026-05-04 16:22 | 51.10871 | 2.40317 | 36509 ft | 478 kts | 98° |
| 2026-05-04 16:23 | 51.09978 | 2.56085 | 37387 ft | 478 kts | 98° |
| 2026-05-04 16:24 | 51.07017 | 2.76522 | 38487 ft | 474 kts | 111° |
| 2026-05-04 16:25 | 51.04838 | 2.86423 | 38911 ft | 475 kts | 112° |
| 2026-05-04 16:26 | 50.97070 | 3.21126 | 38968 ft | 476 kts | 112° |
| 2026-05-04 16:28 | 50.91511 | 3.45785 | 38952 ft | 477 kts | 112° |
| 2026-05-04 16:29 | 50.83600 | 3.80360 | 38951 ft | 477 kts | 112° |
| 2026-05-04 16:31 | 50.77876 | 4.05024 | 38959 ft | 479 kts | 113° |
| 2026-05-04 16:32 | 50.70934 | 4.34594 | 38959 ft | 479 kts | 113° |
| 2026-05-04 16:33 | 50.66258 | 4.54272 | 38959 ft | 479 kts | 113° |
| 2026-05-04 16:34 | 50.62721 | 4.69044 | 38954 ft | 479 kts | 114° |
| 2026-05-04 16:35 | 50.55608 | 4.98447 | 38963 ft | 479 kts | 114° |
| 2026-05-04 16:36 | 50.52046 | 5.13026 | 38960 ft | 479 kts | 114° |
| 2026-05-04 16:37 | 50.48436 | 5.27704 | 38976 ft | 480 kts | 114° |
| 2026-05-04 16:38 | 50.43596 | 5.47235 | 38981 ft | 479 kts | 116° |
| 2026-05-04 16:39 | 50.37385 | 5.71423 | 38985 ft | 479 kts | 116° |
| 2026-05-04 16:40 | 50.32476 | 5.90830 | 38988 ft | 480 kts | 116° |
| 2026-05-04 16:41 | 50.26297 | 6.15059 | 38968 ft | 479 kts | 117° |
| 2026-05-04 16:43 | 50.20081 | 6.39157 | 38962 ft | 478 kts | 117° |
| 2026-05-04 16:43 | 50.15840 | 6.53169 | 38958 ft | 475 kts | 122° |
| 2026-05-04 16:45 | 50.06551 | 6.80461 | 38977 ft | 475 kts | 123° |
| 2026-05-04 16:46 | 49.98785 | 7.03096 | 38992 ft | 475 kts | 123° |
| 2026-05-04 16:47 | 49.92541 | 7.21148 | 38993 ft | 474 kts | 123° |
| 2026-05-04 16:48 | 49.86296 | 7.39075 | 38971 ft | 473 kts | 123° |
| 2026-05-04 16:49 | 49.80009 | 7.56994 | 38971 ft | 473 kts | 124° |
| 2026-05-04 16:50 | 49.73688 | 7.74887 | 38968 ft | 474 kts | 124° |
| 2026-05-04 16:51 | 49.69448 | 7.86819 | 38971 ft | 475 kts | 124° |
| 2026-05-04 16:52 | 49.63073 | 8.04660 | 38975 ft | 474 kts | 124° |
| 2026-05-04 16:53 | 49.58276 | 8.17999 | 38975 ft | 475 kts | 124° |
| 2026-05-04 16:54 | 49.51867 | 8.35717 | 38978 ft | 475 kts | 124° |
| 2026-05-04 16:55 | 49.42170 | 8.62296 | 38957 ft | 475 kts | 124° |
| 2026-05-04 16:56 | 49.34062 | 8.84297 | 38970 ft | 473 kts | 125° |
| 2026-05-04 16:57 | 49.29119 | 8.97392 | 38970 ft | 473 kts | 126° |
| 2026-05-04 16:58 | 49.22482 | 9.14832 | 38968 ft | 473 kts | 126° |
| 2026-05-04 17:00 | 49.12513 | 9.40849 | 38963 ft | 474 kts | 126° |
| 2026-05-04 17:01 | 49.04142 | 9.62505 | 38961 ft | 474 kts | 126° |
| 2026-05-04 17:02 | 48.97405 | 9.79803 | 38971 ft | 477 kts | 126° |
| 2026-05-04 17:03 | 48.92323 | 9.92776 | 38965 ft | 478 kts | 126° |
| 2026-05-04 17:03 | 48.87199 | 10.05796 | 38969 ft | 478 kts | 126° |
| 2026-05-04 17:04 | 48.80475 | 10.23270 | 38960 ft | 480 kts | 124° |
| 2026-05-04 17:05 | 48.73795 | 10.40772 | 38962 ft | 479 kts | 127° |
| 2026-05-04 17:06 | 48.68704 | 10.53766 | 38956 ft | 480 kts | 126° |
| 2026-05-04 17:07 | 48.64203 | 10.65406 | 38966 ft | 479 kts | 126° |
| 2026-05-04 17:07 | 48.60295 | 10.75530 | 38961 ft | 479 kts | 126° |
| 2026-05-04 17:08 | 48.56345 | 10.89543 | 38942 ft | 485 kts | 115° |
| 2026-05-04 17:09 | 48.54139 | 10.99132 | 38938 ft | 483 kts | 114° |
| 2026-05-04 17:09 | 48.51961 | 11.08741 | 38941 ft | 483 kts | 114° |
| 2026-05-04 17:10 | 48.46458 | 11.32578 | 38933 ft | 483 kts | 114° |
| 2026-05-04 17:11 | 48.44212 | 11.42192 | 38934 ft | 484 kts | 114° |
| 2026-05-04 17:12 | 48.40859 | 11.56470 | 38939 ft | 484 kts | 114° |
| 2026-05-04 17:13 | 48.35210 | 11.80294 | 38935 ft | 484 kts | 114° |
| 2026-05-04 17:14 | 48.30661 | 11.99328 | 38934 ft | 484 kts | 115° |
| 2026-05-04 17:15 | 48.27224 | 12.13585 | 38918 ft | 484 kts | 114° |
| 2026-05-04 17:16 | 48.22610 | 12.32582 | 38902 ft | 484 kts | 115° |
| 2026-05-04 17:17 | 48.18000 | 12.51411 | 38899 ft | 484 kts | 115° |
| 2026-05-04 17:18 | 48.13313 | 12.70329 | 38909 ft | 484 kts | 116° |
| 2026-05-04 17:19 | 48.08257 | 12.89001 | 38895 ft | 484 kts | 117° |
| 2026-05-04 17:20 | 48.03016 | 13.07460 | 38895 ft | 482 kts | 121° |
| 2026-05-04 17:20 | 47.98487 | 13.20877 | 38898 ft | 483 kts | 121° |
| 2026-05-04 17:21 | 47.92587 | 13.38891 | 38905 ft | 484 kts | 120° |
| 2026-05-04 17:22 | 47.89660 | 13.47929 | 38902 ft | 484 kts | 120° |
| 2026-05-04 17:23 | 47.83796 | 13.65917 | 38905 ft | 484 kts | 120° |
| 2026-05-04 17:24 | 47.79358 | 13.79421 | 38924 ft | 485 kts | 120° |
| 2026-05-04 17:25 | 47.73409 | 13.97417 | 38924 ft | 485 kts | 120° |
| 2026-05-04 17:26 | 47.67448 | 14.15354 | 38933 ft | 484 kts | 120° |
| 2026-05-04 17:27 | 47.59975 | 14.37654 | 38941 ft | 484 kts | 120° |
| 2026-05-04 17:28 | 47.53957 | 14.55483 | 38955 ft | 484 kts | 121° |
| 2026-05-04 17:29 | 47.44870 | 14.82143 | 38972 ft | 483 kts | 121° |
| 2026-05-04 17:31 | 47.37260 | 15.04278 | 38975 ft | 484 kts | 121° |
| 2026-05-04 17:32 | 47.29595 | 15.26375 | 38973 ft | 484 kts | 121° |
| 2026-05-04 17:33 | 47.23456 | 15.43941 | 38971 ft | 484 kts | 121° |
| 2026-05-04 17:34 | 47.17279 | 15.61501 | 38968 ft | 483 kts | 121° |
| 2026-05-04 17:35 | 47.09523 | 15.83386 | 38968 ft | 483 kts | 121° |
| 2026-05-04 17:36 | 47.06406 | 15.92128 | 38968 ft | 483 kts | 121° |
| 2026-05-04 17:36 | 47.03815 | 15.99372 | 38969 ft | 483 kts | 121° |
| 2026-05-04 17:37 | 47.00178 | 16.09509 | 38971 ft | 483 kts | 121° |
| 2026-05-04 17:37 | 46.97551 | 16.16810 | 38972 ft | 483 kts | 121° |
| 2026-05-04 17:38 | 46.94430 | 16.25454 | 38974 ft | 483 kts | 121° |
| 2026-05-04 17:38 | 46.91285 | 16.34138 | 38974 ft | 483 kts | 121° |
| 2026-05-04 17:39 | 46.86556 | 16.47140 | 38974 ft | 483 kts | 121° |
| 2026-05-04 17:39 | 46.83396 | 16.55794 | 38978 ft | 483 kts | 121° |
| 2026-05-04 17:40 | 46.80230 | 16.64436 | 38980 ft | 482 kts | 121° |
| 2026-05-04 17:40 | 46.77054 | 16.73077 | 38982 ft | 482 kts | 121° |
| 2026-05-04 17:41 | 46.73880 | 16.81691 | 38987 ft | 482 kts | 121° |
| 2026-05-04 17:41 | 46.70694 | 16.90302 | 38993 ft | 482 kts | 121° |
| 2026-05-04 17:42 | 46.67524 | 16.98842 | 38993 ft | 482 kts | 121° |
| 2026-05-04 17:42 | 46.64331 | 17.07421 | 38993 ft | 482 kts | 121° |
| 2026-05-04 17:43 | 46.61132 | 17.15987 | 38993 ft | 482 kts | 121° |
| 2026-05-04 17:43 | 46.57925 | 17.24548 | 38995 ft | 482 kts | 121° |
| 2026-05-04 17:44 | 46.54711 | 17.33100 | 38996 ft | 481 kts | 121° |
| 2026-05-04 17:44 | 46.51499 | 17.41612 | 39001 ft | 481 kts | 121° |
| 2026-05-04 17:45 | 46.48276 | 17.50133 | 39008 ft | 481 kts | 121° |
| 2026-05-04 17:45 | 46.45055 | 17.58621 | 39015 ft | 480 kts | 121° |
| 2026-05-04 17:46 | 46.41832 | 17.67105 | 39013 ft | 480 kts | 121° |
| 2026-05-04 17:46 | 46.38622 | 17.75518 | 39018 ft | 480 kts | 121° |
| 2026-05-04 17:47 | 46.35388 | 17.83963 | 39021 ft | 480 kts | 121° |
| 2026-05-04 17:47 | 46.32141 | 17.92414 | 39024 ft | 480 kts | 121° |
| 2026-05-04 17:48 | 46.28889 | 18.00853 | 39025 ft | 480 kts | 121° |
| 2026-05-04 17:48 | 46.25635 | 18.09275 | 39032 ft | 480 kts | 121° |
| 2026-05-04 17:49 | 46.22372 | 18.17691 | 39038 ft | 480 kts | 121° |
| 2026-05-04 17:49 | 46.19101 | 18.26105 | 39043 ft | 480 kts | 121° |
| 2026-05-04 17:50 | 46.15825 | 18.34504 | 39043 ft | 481 kts | 121° |
| 2026-05-04 17:50 | 46.12541 | 18.42897 | 39043 ft | 481 kts | 121° |
| 2026-05-04 17:51 | 46.09248 | 18.51288 | 39041 ft | 481 kts | 121° |
| 2026-05-04 17:51 | 46.05949 | 18.59667 | 39037 ft | 481 kts | 121° |
| 2026-05-04 17:52 | 46.02641 | 18.68042 | 39039 ft | 481 kts | 121° |
| 2026-05-04 17:52 | 45.99342 | 18.76371 | 39040 ft | 481 kts | 121° |
| 2026-05-04 17:53 | 45.96019 | 18.84732 | 39042 ft | 481 kts | 122° |
| 2026-05-04 17:53 | 45.92507 | 18.92922 | 39049 ft | 480 kts | 130° |
| 2026-05-04 17:54 | 45.88268 | 19.00321 | 39045 ft | 480 kts | 133° |
| 2026-05-04 17:54 | 45.83863 | 19.07554 | 39050 ft | 481 kts | 134° |
| 2026-05-04 17:55 | 45.79429 | 19.14751 | 39050 ft | 482 kts | 133° |
| 2026-05-04 17:55 | 45.75001 | 19.21959 | 39049 ft | 482 kts | 133° |
| 2026-05-04 17:56 | 45.70578 | 19.29168 | 39054 ft | 481 kts | 133° |
| 2026-05-04 17:56 | 45.66188 | 19.36314 | 39054 ft | 481 kts | 133° |
| 2026-05-04 17:57 | 45.61764 | 19.43496 | 39057 ft | 481 kts | 133° |
| 2026-05-04 17:57 | 45.57337 | 19.50662 | 39057 ft | 481 kts | 133° |
| 2026-05-04 17:58 | 45.52900 | 19.57826 | 39059 ft | 481 kts | 134° |
| 2026-05-04 17:58 | 45.48460 | 19.64976 | 39059 ft | 481 kts | 133° |
| 2026-05-04 17:59 | 45.44017 | 19.72113 | 39055 ft | 481 kts | 134° |
| 2026-05-04 18:00 | 45.37331 | 19.82817 | 39064 ft | 482 kts | 133° |
| 2026-05-04 18:00 | 45.32862 | 19.89948 | 39068 ft | 482 kts | 133° |
| 2026-05-04 18:01 | 45.28395 | 19.97057 | 39067 ft | 482 kts | 133° |
| 2026-05-04 18:01 | 45.23948 | 20.04118 | 39067 ft | 482 kts | 134° |
| 2026-05-04 18:02 | 45.17225 | 20.14759 | 39073 ft | 484 kts | 133° |
| 2026-05-04 18:02 | 45.12720 | 20.21866 | 39071 ft | 484 kts | 134° |
| 2026-05-04 18:03 | 45.08215 | 20.28955 | 39075 ft | 484 kts | 133° |
| 2026-05-04 18:03 | 45.03700 | 20.36042 | 39078 ft | 485 kts | 134° |
| 2026-05-04 18:04 | 44.99173 | 20.43130 | 39075 ft | 486 kts | 134° |
| 2026-05-04 18:05 | 44.92378 | 20.53733 | 39076 ft | 486 kts | 134° |
| 2026-05-04 18:05 | 44.87840 | 20.60793 | 39088 ft | 486 kts | 134° |
| 2026-05-04 18:06 | 44.81039 | 20.71339 | 39077 ft | 486 kts | 134° |
| 2026-05-04 18:06 | 44.76484 | 20.78383 | 39082 ft | 486 kts | 134° |
| 2026-05-04 18:07 | 44.71932 | 20.85405 | 39083 ft | 486 kts | 134° |
| 2026-05-04 18:07 | 44.67373 | 20.92415 | 39086 ft | 484 kts | 134° |
| 2026-05-04 18:08 | 44.62832 | 20.99382 | 39078 ft | 483 kts | 134° |
| 2026-05-04 18:08 | 44.58290 | 21.06334 | 39077 ft | 483 kts | 134° |
| 2026-05-04 18:09 | 44.49188 | 21.20212 | 39083 ft | 482 kts | 134° |
| 2026-05-04 18:10 | 44.44672 | 21.27071 | 39084 ft | 482 kts | 134° |
| 2026-05-04 18:10 | 44.40123 | 21.33964 | 39083 ft | 482 kts | 134° |
| 2026-05-04 18:11 | 44.35567 | 21.40851 | 39086 ft | 482 kts | 134° |
| 2026-05-04 18:11 | 44.31000 | 21.47749 | 39082 ft | 485 kts | 134° |
| 2026-05-04 18:12 | 44.26423 | 21.54691 | 39095 ft | 486 kts | 134° |
| 2026-05-04 18:12 | 44.21838 | 21.61638 | 39094 ft | 486 kts | 134° |
| 2026-05-04 18:13 | 44.17252 | 21.68575 | 39109 ft | 487 kts | 134° |
| 2026-05-04 18:14 | 44.10368 | 21.78951 | 39106 ft | 485 kts | 134° |
| 2026-05-04 18:14 | 44.05808 | 21.85800 | 39085 ft | 485 kts | 134° |
| 2026-05-04 18:15 | 43.96609 | 21.99551 | 39100 ft | 486 kts | 134° |
| 2026-05-04 18:16 | 43.91995 | 22.06423 | 39076 ft | 486 kts | 134° |
| 2026-05-04 18:16 | 43.87383 | 22.13279 | 39083 ft | 486 kts | 135° |
| 2026-05-04 18:17 | 43.80459 | 22.23542 | 39079 ft | 486 kts | 135° |
| 2026-05-04 18:18 | 43.73526 | 22.33784 | 39071 ft | 486 kts | 135° |
| 2026-05-04 18:18 | 43.69044 | 22.40721 | 39091 ft | 487 kts | 128° |
| 2026-05-04 18:19 | 43.63788 | 22.52695 | 39081 ft | 485 kts | 118° |
| 2026-05-04 18:19 | 43.60700 | 22.60960 | 39084 ft | 483 kts | 118° |
| 2026-05-04 18:20 | 43.57653 | 22.69227 | 39086 ft | 483 kts | 118° |
| 2026-05-04 18:20 | 43.54608 | 22.77496 | 39092 ft | 483 kts | 118° |
| 2026-05-04 18:21 | 43.52076 | 22.84365 | 39086 ft | 484 kts | 118° |
| 2026-05-04 18:21 | 43.49023 | 22.92623 | 39091 ft | 484 kts | 118° |
| 2026-05-04 18:22 | 43.45964 | 23.00877 | 39087 ft | 484 kts | 118° |
| 2026-05-04 18:22 | 43.42900 | 23.09119 | 39092 ft | 484 kts | 118° |
| 2026-05-04 18:23 | 43.39822 | 23.17376 | 39086 ft | 484 kts | 118° |
| 2026-05-04 18:23 | 43.36761 | 23.25563 | 39087 ft | 484 kts | 118° |
| 2026-05-04 18:24 | 43.33674 | 23.33794 | 39086 ft | 485 kts | 118° |
| 2026-05-04 18:24 | 43.30581 | 23.42018 | 39094 ft | 484 kts | 118° |
| 2026-05-04 18:25 | 43.27481 | 23.50235 | 39096 ft | 485 kts | 118° |
| 2026-05-04 18:25 | 43.24374 | 23.58449 | 39097 ft | 485 kts | 118° |
| 2026-05-04 18:26 | 43.21259 | 23.66660 | 39101 ft | 485 kts | 118° |
| 2026-05-04 18:26 | 43.18142 | 23.74850 | 39099 ft | 484 kts | 118° |
| 2026-05-04 18:27 | 43.15027 | 23.83013 | 39097 ft | 483 kts | 118° |
| 2026-05-04 18:27 | 43.11904 | 23.91172 | 39106 ft | 484 kts | 118° |
| 2026-05-04 18:28 | 43.08773 | 23.99327 | 39111 ft | 482 kts | 118° |
| 2026-05-04 18:28 | 43.05656 | 24.07424 | 39110 ft | 481 kts | 118° |
| 2026-05-04 18:29 | 43.02531 | 24.15518 | 39109 ft | 481 kts | 118° |
| 2026-05-04 18:29 | 42.99424 | 24.23545 | 39121 ft | 481 kts | 119° |
| 2026-05-04 18:30 | 42.94704 | 24.35694 | 39112 ft | 481 kts | 119° |
| 2026-05-04 18:31 | 42.91583 | 24.43697 | 39118 ft | 481 kts | 119° |
| 2026-05-04 18:31 | 42.88437 | 24.51743 | 39125 ft | 480 kts | 119° |
| 2026-05-04 18:32 | 42.85280 | 24.59796 | 39093 ft | 482 kts | 119° |
| 2026-05-04 18:32 | 42.83695 | 24.63824 | 38725 ft | 480 kts | 119° |
| 2026-05-04 18:32 | 42.82132 | 24.67800 | 38378 ft | 472 kts | 119° |
| 2026-05-04 18:32 | 42.80596 | 24.71704 | 38131 ft | 463 kts | 119° |
| 2026-05-04 18:33 | 42.79085 | 24.75540 | 37710 ft | 458 kts | 119° |
| 2026-05-04 18:33 | 42.77587 | 24.79332 | 36862 ft | 462 kts | 120° |
| 2026-05-04 18:33 | 42.76050 | 24.83211 | 36060 ft | 466 kts | 120° |
| 2026-05-04 18:33 | 42.74503 | 24.87101 | 35289 ft | 468 kts | 120° |
| 2026-05-04 18:34 | 42.72952 | 24.90995 | 34617 ft | 469 kts | 120° |
| 2026-05-04 18:34 | 42.71399 | 24.94887 | 33975 ft | 467 kts | 119° |
| 2026-05-04 18:34 | 42.69844 | 24.98776 | 33080 ft | 469 kts | 120° |
| 2026-05-04 18:34 | 42.68277 | 25.02693 | 32102 ft | 473 kts | 120° |
| 2026-05-04 18:35 | 42.66704 | 25.06634 | 31445 ft | 473 kts | 120° |
| 2026-05-04 18:35 | 42.65133 | 25.10570 | 31128 ft | 473 kts | 120° |
| 2026-05-04 18:35 | 42.63559 | 25.14504 | 31067 ft | 476 kts | 120° |
| 2026-05-04 18:36 | 42.60406 | 25.22370 | 31071 ft | 477 kts | 120° |
| 2026-05-04 18:36 | 42.57233 | 25.30264 | 31066 ft | 477 kts | 120° |
| 2026-05-04 18:37 | 42.54054 | 25.38155 | 31059 ft | 476 kts | 120° |
| 2026-05-04 18:37 | 42.50889 | 25.45990 | 31059 ft | 473 kts | 120° |
| 2026-05-04 18:38 | 42.47716 | 25.53822 | 31055 ft | 472 kts | 120° |
| 2026-05-04 18:38 | 42.44549 | 25.61617 | 31048 ft | 473 kts | 120° |
| 2026-05-04 18:39 | 42.41376 | 25.69410 | 31047 ft | 472 kts | 120° |
| 2026-05-04 18:39 | 42.38216 | 25.77147 | 31040 ft | 472 kts | 120° |
| 2026-05-04 18:40 | 42.35030 | 25.84927 | 31034 ft | 472 kts | 120° |
| 2026-05-04 18:40 | 42.31837 | 25.92705 | 31043 ft | 473 kts | 120° |
| 2026-05-04 18:41 | 42.28649 | 26.00451 | 31034 ft | 471 kts | 120° |
| 2026-05-04 18:41 | 42.25459 | 26.08179 | 31034 ft | 471 kts | 120° |
| 2026-05-04 18:42 | 42.22265 | 26.15898 | 31034 ft | 471 kts | 120° |
| 2026-05-04 18:42 | 42.19065 | 26.23610 | 31036 ft | 470 kts | 119° |
| 2026-05-04 18:43 | 42.15870 | 26.31294 | 31037 ft | 470 kts | 120° |
| 2026-05-04 18:43 | 42.12668 | 26.38971 | 31037 ft | 470 kts | 120° |
| 2026-05-04 18:44 | 42.09465 | 26.46631 | 31038 ft | 470 kts | 120° |
| 2026-05-04 18:44 | 42.06352 | 26.54303 | 31042 ft | 469 kts | 116° |
| 2026-05-04 18:45 | 42.03185 | 26.62006 | 31042 ft | 469 kts | 117° |
| 2026-05-04 18:45 | 41.99981 | 26.69658 | 31047 ft | 469 kts | 117° |
| 2026-05-04 18:46 | 41.96764 | 26.77288 | 30958 ft | 469 kts | 117° |
| 2026-05-04 18:46 | 41.95144 | 26.81088 | 30777 ft | 469 kts | 117° |
| 2026-05-04 18:46 | 41.93513 | 26.84897 | 30451 ft | 470 kts | 117° |
| 2026-05-04 18:46 | 41.91883 | 26.88701 | 29729 ft | 467 kts | 117° |
| 2026-05-04 18:47 | 41.90300 | 26.92407 | 28793 ft | 462 kts | 117° |
| 2026-05-04 18:47 | 41.88700 | 26.96138 | 27885 ft | 460 kts | 117° |
| 2026-05-04 18:47 | 41.87104 | 26.99833 | 26997 ft | 455 kts | 117° |
| 2026-05-04 18:47 | 41.85509 | 27.03472 | 26155 ft | 449 kts | 117° |
| 2026-05-04 18:48 | 41.83916 | 27.07035 | 25442 ft | 438 kts | 117° |
| 2026-05-04 18:48 | 41.82372 | 27.10443 | 24837 ft | 419 kts | 117° |
| 2026-05-04 18:48 | 41.80867 | 27.13733 | 24254 ft | 409 kts | 117° |
| 2026-05-04 18:48 | 41.79378 | 27.16962 | 23677 ft | 405 kts | 117° |
| 2026-05-04 18:49 | 41.77897 | 27.20157 | 22998 ft | 402 kts | 117° |
| 2026-05-04 18:49 | 41.76426 | 27.23320 | 22337 ft | 398 kts | 117° |
| 2026-05-04 18:49 | 41.74963 | 27.26456 | 21686 ft | 394 kts | 117° |
| 2026-05-04 18:49 | 41.73533 | 27.29497 | 21077 ft | 389 kts | 117° |
| 2026-05-04 18:50 | 41.72089 | 27.32544 | 20457 ft | 385 kts | 117° |
| 2026-05-04 18:50 | 41.70659 | 27.35550 | 19841 ft | 381 kts | 117° |
| 2026-05-04 18:50 | 41.69242 | 27.38522 | 19263 ft | 377 kts | 117° |
| 2026-05-04 18:50 | 41.67838 | 27.41463 | 18827 ft | 373 kts | 117° |
| 2026-05-04 18:51 | 41.66444 | 27.44382 | 18401 ft | 371 kts | 117° |
| 2026-05-04 18:51 | 41.65055 | 27.47284 | 17909 ft | 368 kts | 117° |
| 2026-05-04 18:51 | 41.63681 | 27.50163 | 17438 ft | 366 kts | 117° |
| 2026-05-04 18:51 | 41.62319 | 27.53026 | 16995 ft | 364 kts | 117° |
| 2026-05-04 18:52 | 41.60959 | 27.55867 | 16531 ft | 361 kts | 117° |
| 2026-05-04 18:52 | 41.59608 | 27.58686 | 16073 ft | 359 kts | 117° |
| 2026-05-04 18:52 | 41.58269 | 27.61488 | 15614 ft | 357 kts | 117° |
| 2026-05-04 18:52 | 41.56940 | 27.64277 | 15180 ft | 355 kts | 117° |
| 2026-05-04 18:53 | 41.55621 | 27.67056 | 14734 ft | 353 kts | 117° |
| 2026-05-04 18:53 | 41.54312 | 27.69819 | 14313 ft | 352 kts | 117° |
| 2026-05-04 18:53 | 41.53007 | 27.72581 | 13885 ft | 350 kts | 117° |
| 2026-05-04 18:53 | 41.51713 | 27.75328 | 13408 ft | 348 kts | 117° |
| 2026-05-04 18:54 | 41.50426 | 27.78058 | 12935 ft | 346 kts | 117° |
| 2026-05-04 18:54 | 41.49172 | 27.80702 | 12452 ft | 327 kts | 117° |
| 2026-05-04 18:54 | 41.47989 | 27.83160 | 11999 ft | 312 kts | 117° |
| 2026-05-04 18:54 | 41.46823 | 27.85552 | 11540 ft | 305 kts | 117° |
| 2026-05-04 18:55 | 41.45820 | 27.88052 | 11224 ft | 300 kts | 107° |
| 2026-05-04 18:55 | 41.44392 | 27.93223 | 10641 ft | 294 kts | 103° |
| 2026-05-04 18:55 | 41.43712 | 27.95792 | 10335 ft | 293 kts | 103° |
| 2026-05-04 18:56 | 41.43036 | 27.98345 | 10051 ft | 292 kts | 103° |
| 2026-05-04 18:56 | 41.42361 | 28.00894 | 9745 ft | 291 kts | 103° |
| 2026-05-04 18:56 | 41.41689 | 28.03434 | 9413 ft | 290 kts | 103° |
| 2026-05-04 18:56 | 41.41033 | 28.05931 | 9104 ft | 289 kts | 103° |
| 2026-05-04 18:57 | 41.40360 | 28.08482 | 8808 ft | 288 kts | 103° |
| 2026-05-04 18:57 | 41.39691 | 28.10983 | 8502 ft | 286 kts | 103° |
| 2026-05-04 18:57 | 41.39030 | 28.13447 | 8186 ft | 286 kts | 103° |
| 2026-05-04 18:57 | 41.38362 | 28.15928 | 7884 ft | 285 kts | 103° |
| 2026-05-04 18:58 | 41.37694 | 28.18416 | 7583 ft | 284 kts | 103° |
| 2026-05-04 18:58 | 41.37032 | 28.20892 | 7269 ft | 283 kts | 103° |
| 2026-05-04 18:58 | 41.36372 | 28.23357 | 6978 ft | 282 kts | 103° |
| 2026-05-04 18:58 | 41.35715 | 28.25815 | 6685 ft | 282 kts | 103° |
| 2026-05-04 18:59 | 41.35052 | 28.28277 | 6392 ft | 282 kts | 103° |
| 2026-05-04 18:59 | 41.34394 | 28.30707 | 6071 ft | 281 kts | 103° |
| 2026-05-04 18:59 | 41.33735 | 28.33154 | 5755 ft | 279 kts | 104° |
| 2026-05-04 18:59 | 41.32964 | 28.35535 | 5509 ft | 283 kts | 115° |
| 2026-05-04 19:00 | 41.31861 | 28.37718 | 5478 ft | 285 kts | 120° |
| 2026-05-04 19:00 | 41.30692 | 28.39826 | 5423 ft | 287 kts | 121° |
| 2026-05-04 19:00 | 41.29498 | 28.41956 | 5380 ft | 287 kts | 121° |
| 2026-05-04 19:00 | 41.28231 | 28.43997 | 5324 ft | 284 kts | 129° |
| 2026-05-04 19:01 | 41.26856 | 28.45807 | 5263 ft | 272 kts | 131° |
| 2026-05-04 19:01 | 41.25513 | 28.47511 | 5205 ft | 262 kts | 131° |
| 2026-05-04 19:01 | 41.24200 | 28.49164 | 5145 ft | 259 kts | 131° |
| 2026-05-04 19:01 | 41.22891 | 28.50802 | 5092 ft | 259 kts | 133° |
| 2026-05-04 19:02 | 41.21423 | 28.52209 | 5072 ft | 261 kts | 144° |
| 2026-05-04 19:02 | 41.19856 | 28.53435 | 5059 ft | 262 kts | 146° |
| 2026-05-04 19:02 | 41.18274 | 28.54645 | 5052 ft | 263 kts | 147° |
| 2026-05-04 19:02 | 41.16584 | 28.55614 | 5050 ft | 266 kts | 160° |
| 2026-05-04 19:03 | 41.14807 | 28.56319 | 5049 ft | 267 kts | 162° |
| 2026-05-04 19:03 | 41.13042 | 28.56974 | 5046 ft | 267 kts | 165° |
| 2026-05-04 19:03 | 41.11207 | 28.57144 | 5018 ft | 261 kts | 184° |
| 2026-05-04 19:03 | 41.09378 | 28.56937 | 5027 ft | 266 kts | 187° |
| 2026-05-04 19:04 | 41.07525 | 28.56686 | 5031 ft | 268 kts | 187° |
| 2026-05-04 19:04 | 41.05671 | 28.56432 | 5022 ft | 268 kts | 187° |
| 2026-05-04 19:04 | 41.03814 | 28.56176 | 5018 ft | 268 kts | 187° |
| 2026-05-04 19:04 | 41.01946 | 28.56126 | 5016 ft | 269 kts | 169° |
| 2026-05-04 19:05 | 41.00252 | 28.57067 | 5007 ft | 262 kts | 139° |
| 2026-05-04 19:05 | 40.99121 | 28.58849 | 4994 ft | 248 kts | 109° |
| 2026-05-04 19:05 | 40.98561 | 28.60959 | 4994 ft | 241 kts | 98° |
| 2026-05-04 19:05 | 40.98014 | 28.63067 | 4993 ft | 248 kts | 112° |
| 2026-05-04 19:06 | 40.97121 | 28.64999 | 4988 ft | 247 kts | 109° |
| 2026-05-04 19:06 | 40.96705 | 28.67137 | 5006 ft | 237 kts | 89° |
| 2026-05-04 19:06 | 40.96639 | 28.69281 | 4987 ft | 228 kts | 74° |
| 2026-05-04 19:06 | 40.97232 | 28.71128 | 4775 ft | 214 kts | 46° |
| 2026-05-04 19:07 | 40.98347 | 28.72349 | 4361 ft | 206 kts | 29° |
| 2026-05-04 19:07 | 40.99153 | 28.72974 | 4231 ft | 199 kts | 27° |
| 2026-05-04 19:07 | 41.00329 | 28.73846 | 4059 ft | 189 kts | 26° |
| 2026-05-04 19:07 | 41.01441 | 28.74672 | 3938 ft | 177 kts | 26° |
| 2026-05-04 19:08 | 41.02495 | 28.75375 | 3820 ft | 164 kts | 19° |
| 2026-05-04 19:08 | 41.03532 | 28.75852 | 3699 ft | 153 kts | 16° |
| 2026-05-04 19:08 | 41.04542 | 28.76098 | 3583 ft | 144 kts | 5° |
| 2026-05-04 19:08 | 41.05517 | 28.76094 | 3435 ft | 137 kts | 354° |
| 2026-05-04 19:09 | 41.06447 | 28.75952 | 3246 ft | 133 kts | 357° |
| 2026-05-04 19:09 | 41.07358 | 28.75916 | 3088 ft | 128 kts | 1° |
| 2026-05-04 19:09 | 41.08227 | 28.75920 | 2992 ft | 126 kts | 1° |
| 2026-05-04 19:09 | 41.09129 | 28.75908 | 2929 ft | 131 kts | 0° |
| 2026-05-04 19:10 | 41.10048 | 28.75869 | 2817 ft | 132 kts | 0° |
| 2026-05-04 19:10 | 41.10658 | 28.75853 | 2738 ft | 133 kts | 0° |
| 2026-05-04 19:10 | 41.11899 | 28.75822 | 2700 ft | 134 kts | 359° |
| 2026-05-04 19:10 | 41.12828 | 28.75807 | 2672 ft | 133 kts | 2° |
| 2026-05-04 19:11 | 41.13740 | 28.75808 | 2628 ft | 134 kts | 1° |
| 2026-05-04 19:11 | 41.14654 | 28.75822 | 2534 ft | 128 kts | 3° |
| 2026-05-04 19:11 | 41.15525 | 28.75804 | 2363 ft | 122 kts | 0° |
| 2026-05-04 19:11 | 41.16379 | 28.75802 | 2205 ft | 124 kts | 2° |
| 2026-05-04 19:12 | 41.17238 | 28.75779 | 2071 ft | 123 kts | 0° |
| 2026-05-04 19:12 | 41.18946 | 28.75623 | 1783 ft | 122 kts | 358° |
| 2026-05-04 19:12 | 41.19788 | 28.75525 | 1611 ft | 121 kts | 357° |
| 2026-05-04 19:13 | 41.20630 | 28.75424 | 1371 ft | 121 kts | 357° |
| 2026-05-04 19:13 | 41.21469 | 28.75325 | 1117 ft | 121 kts | 356° |
| 2026-05-04 19:13 | 41.22303 | 28.75259 | 905 ft | 120 kts | 6° |
| 2026-05-04 19:13 | 41.23083 | 28.75652 | 770 ft | 117 kts | 3° |
| 2026-05-04 19:14 | 41.23999 | 28.75736 | 1439 ft | 148 kts | 5° |
| 2026-05-04 19:14 | 41.25094 | 28.75875 | 2309 ft | 163 kts | 11° |
| 2026-05-04 19:14 | 41.26246 | 28.76313 | 2839 ft | 180 kts | 11° |
| 2026-05-04 19:14 | 41.27437 | 28.75944 | 3362 ft | 189 kts | 327° |
| 2026-05-04 19:15 | 41.28004 | 28.74362 | 3971 ft | 206 kts | 277° |
| 2026-05-04 19:15 | 41.27849 | 28.72434 | 4411 ft | 205 kts | 279° |
| 2026-05-04 19:15 | 41.28245 | 28.70752 | 4450 ft | 185 kts | 317° |
| 2026-05-04 19:15 | 41.29204 | 28.69654 | 4205 ft | 184 kts | 328° |
| 2026-05-04 19:16 | 41.29950 | 28.68213 | 3743 ft | 200 kts | 298° |
| 2026-05-04 19:16 | 41.30159 | 28.66344 | 3414 ft | 206 kts | 283° |
| 2026-05-04 19:16 | 41.30199 | 28.64439 | 3097 ft | 206 kts | 280° |
| 2026-05-04 19:16 | 41.30240 | 28.62519 | 2994 ft | 208 kts | 281° |
| 2026-05-04 19:17 | 41.30281 | 28.60603 | 2998 ft | 207 kts | 281° |
| 2026-05-04 19:17 | 41.30323 | 28.58688 | 2991 ft | 206 kts | 280° |
| 2026-05-04 19:17 | 41.30367 | 28.56786 | 2992 ft | 206 kts | 280° |
| 2026-05-04 19:17 | 41.30409 | 28.54900 | 2993 ft | 206 kts | 281° |
| 2026-05-04 19:18 | 41.30253 | 28.52985 | 2979 ft | 217 kts | 258° |
| 2026-05-04 19:18 | 41.29391 | 28.51312 | 2987 ft | 225 kts | 226° |
| 2026-05-04 19:18 | 41.27997 | 28.50371 | 3000 ft | 227 kts | 198° |
| 2026-05-04 19:18 | 41.26443 | 28.50093 | 2985 ft | 225 kts | 179° |
| 2026-05-04 19:19 | 41.24929 | 28.50553 | 2999 ft | 221 kts | 160° |
| 2026-05-04 19:19 | 41.23507 | 28.51281 | 2999 ft | 219 kts | 159° |
| 2026-05-04 19:19 | 41.22082 | 28.52017 | 3011 ft | 220 kts | 160° |
| 2026-05-04 19:19 | 41.20623 | 28.52652 | 3086 ft | 221 kts | 165° |
| 2026-05-04 19:20 | 41.19132 | 28.53162 | 3157 ft | 222 kts | 168° |
| 2026-05-04 19:20 | 41.17638 | 28.53681 | 3150 ft | 221 kts | 159° |
| 2026-05-04 19:20 | 41.16222 | 28.54405 | 3045 ft | 217 kts | 158° |
| 2026-05-04 19:20 | 41.14863 | 28.55104 | 2978 ft | 202 kts | 157° |
| 2026-05-04 19:21 | 41.13642 | 28.55845 | 2920 ft | 185 kts | 143° |
| 2026-05-04 19:21 | 41.12678 | 28.56917 | 2957 ft | 180 kts | 138° |
| 2026-05-04 19:21 | 41.11878 | 28.58146 | 2981 ft | 176 kts | 123° |
| 2026-05-04 19:21 | 41.11164 | 28.59454 | 2916 ft | 173 kts | 121° |
| 2026-05-04 19:22 | 41.10617 | 28.60829 | 2750 ft | 165 kts | 98° |
| 2026-05-04 19:22 | 41.10465 | 28.62327 | 2851 ft | 160 kts | 93° |
| 2026-05-04 19:22 | 41.10441 | 28.63716 | 2839 ft | 146 kts | 80° |
| 2026-05-04 19:22 | 41.10538 | 28.65057 | 2797 ft | 145 kts | 79° |
| 2026-05-04 19:23 | 41.10716 | 28.66350 | 2777 ft | 139 kts | 64° |
| 2026-05-04 19:23 | 41.11330 | 28.67259 | 2748 ft | 128 kts | 36° |
| 2026-05-04 19:23 | 41.12041 | 28.67938 | 2820 ft | 127 kts | 36° |
| 2026-05-04 19:23 | 41.12743 | 28.68642 | 2780 ft | 125 kts | 36° |
| 2026-05-04 19:24 | 41.13469 | 28.69246 | 2637 ft | 125 kts | 32° |
| 2026-05-04 19:24 | 41.14203 | 28.69864 | 2469 ft | 125 kts | 30° |
| 2026-05-04 19:24 | 41.14968 | 28.70398 | 2321 ft | 123 kts | 23° |
| 2026-05-04 19:24 | 41.15810 | 28.70623 | 2186 ft | 124 kts | 9° |
| 2026-05-04 19:25 | 41.16662 | 28.70786 | 2096 ft | 123 kts | 11° |
| 2026-05-04 19:25 | 41.17519 | 28.70777 | 2045 ft | 123 kts | 5° |
| 2026-05-04 19:25 | 41.18375 | 28.70789 | 1959 ft | 122 kts | 5° |
| 2026-05-04 19:25 | 41.19227 | 28.70818 | 1781 ft | 123 kts | 2° |
| 2026-05-04 19:26 | 41.20080 | 28.70786 | 1581 ft | 120 kts | 12° |
| 2026-05-04 19:26 | 41.20929 | 28.70767 | 1419 ft | 123 kts | 9° |
| 2026-05-04 19:26 | 41.21791 | 28.70754 | 1263 ft | 124 kts | 6° |
| 2026-05-04 19:26 | 41.22639 | 28.70825 | 1052 ft | 121 kts | 10° |
| 2026-05-04 19:27 | 41.23488 | 28.70786 | 929 ft | 123 kts | 2° |
| 2026-05-04 19:27 | 41.24348 | 28.70788 | 737 ft | 123 kts | 2° |
| 2026-05-04 19:27 | 41.25205 | 28.70771 | 621 ft | 125 kts | 4° |
| 2026-05-04 19:27 | 41.26063 | 28.70759 | 454 ft | 123 kts | 359° |
| 2026-05-04 19:28 | 41.26918 | 28.70742 | 348 ft | 122 kts | 2° |
| 2026-05-04 19:28 | 41.27671 | 28.70729 | 306 ft | 84 kts | 1° |
| 2026-05-04 19:28 | 41.28086 | 28.70715 | 298 ft | 47 kts | 358° |
| 2026-05-04 19:28 | 41.28388 | 28.70708 | 279 ft | 40 kts | 357° |
| 2026-05-04 19:29 | 41.28634 | 28.70798 | 272 ft | 30 kts | 31° |
| 2026-05-04 19:29 | 41.28677 | 28.70831 | 271 ft | 0 kts | 31° |
| 2026-05-04 19:29 | 41.28698 | 28.70847 | 270 ft | 8 kts | 30° |
| 2026-05-04 19:30 | 41.28758 | 28.70891 | 266 ft | 13 kts | 27° |
| 2026-05-04 19:30 | 41.28854 | 28.70951 | 262 ft | 15 kts | 37° |
| 2026-05-04 19:30 | 41.28945 | 28.71022 | 261 ft | 14 kts | 28° |
| 2026-05-04 19:30 | 41.29029 | 28.71092 | 259 ft | 14 kts | 46° |
| 2026-05-04 19:31 | 41.29028 | 28.71146 | 260 ft | 5 kts | 133° |
| 2026-05-04 19:31 | 41.28969 | 28.71166 | 262 ft | 13 kts | 175° |
| 2026-05-04 19:31 | 41.28857 | 28.71166 | 266 ft | 19 kts | 179° |
| 2026-05-04 19:31 | 41.28707 | 28.71170 | 272 ft | 24 kts | 179° |
| 2026-05-04 19:32 | 41.28521 | 28.71177 | 279 ft | 29 kts | 176° |
| 2026-05-04 19:32 | 41.28310 | 28.71184 | 287 ft | 30 kts | 182° |
| 2026-05-04 19:32 | 41.28121 | 28.71184 | 298 ft | 25 kts | 179° |
| 2026-05-04 19:32 | 41.27965 | 28.71186 | 303 ft | 20 kts | 179° |
| 2026-05-04 19:33 | 41.27836 | 28.71189 | 305 ft | 17 kts | 178° |
| 2026-05-04 19:33 | 41.27729 | 28.71192 | 308 ft | 14 kts | 179° |
| 2026-05-04 19:33 | 41.27639 | 28.71197 | 311 ft | 11 kts | 177° |
| 2026-05-04 19:33 | 41.27554 | 28.71194 | 314 ft | 14 kts | 182° |
| 2026-05-04 19:34 | 41.27446 | 28.71195 | 315 ft | 17 kts | 180° |
| 2026-05-04 19:34 | 41.27315 | 28.71199 | 317 ft | 21 kts | 179° |
| 2026-05-04 19:34 | 41.27162 | 28.71203 | 320 ft | 23 kts | 178° |
| 2026-05-04 19:34 | 41.26996 | 28.71208 | 323 ft | 25 kts | 180° |
| 2026-05-04 19:35 | 41.26811 | 28.71210 | 328 ft | 27 kts | 180° |
| 2026-05-04 19:35 | 41.26723 | 28.71222 | 329 ft | 1 kts | 151° |
| 2026-05-04 19:35 | 41.26719 | 28.71231 | 329 ft | 3 kts | 127° |
| 2026-05-04 19:35 | 41.26704 | 28.71262 | 330 ft | 0 kts | 111° |
| 2026-05-04 19:36 | 41.26702 | 28.71279 | 331 ft | 6 kts | 104° |
| 2026-05-04 19:36 | 41.26699 | 28.71349 | 331 ft | 15 kts | 92° |
| 2026-05-04 19:36 | 41.26703 | 28.71569 | 325 ft | 32 kts | 88° |
| 2026-05-04 19:36 | 41.26706 | 28.71889 | 318 ft | 35 kts | 88° |
| 2026-05-04 19:37 | 41.26715 | 28.72162 | 313 ft | 9 kts | 104° |
| 2026-05-04 19:37 | 41.26675 | 28.72173 | 316 ft | 11 kts | 183° |
| 2026-05-04 19:37 | 41.26593 | 28.72172 | 317 ft | 10 kts | 167° |
| 2026-05-04 19:37 | 41.26493 | 28.72168 | 316 ft | 19 kts | 186° |
| 2026-05-04 19:38 | 41.26327 | 28.72176 | 316 ft | 27 kts | 175° |
| 2026-05-04 19:38 | 41.26212 | 28.72253 | 316 ft | 15 kts | 108° |
| 2026-05-04 19:38 | 41.26209 | 28.72364 | 316 ft | 11 kts | 88° |
| 2026-05-04 19:38 | 41.26210 | 28.72395 | 316 ft | 0 kts | 89° |
| 2026-05-04 19:39 | 41.26211 | 28.72456 | 317 ft | 13 kts | 89° |
| 2026-05-04 19:39 | 41.26213 | 28.72637 | 317 ft | 27 kts | 89° |
| 2026-05-04 19:40 | 41.26215 | 28.72868 | 317 ft | 19 kts | 90° |
| 2026-05-04 19:40 | 41.26216 | 28.72945 | 316 ft | 0 kts | 89° |
| 2026-05-04 19:41 | 41.26216 | 28.73009 | 316 ft | 17 kts | 90° |
| 2026-05-04 19:41 | 41.26219 | 28.73224 | 317 ft | 25 kts | 88° |
| 2026-05-04 19:41 | 41.26221 | 28.73444 | 317 ft | 23 kts | 91° |
| 2026-05-04 19:42 | 41.26241 | 28.73620 | 317 ft | 4 kts | 71° |
| 2026-05-04 19:42 | 41.26249 | 28.73651 | 317 ft | 0 kts | 71° |